createdAt,value
2022-10-21T00:04:47.132Z,97939.66
2022-10-21T00:09:38.907Z,97932.03
2022-10-21T00:14:30.628Z,97926.31
2022-10-21T00:19:22.601Z,97925.22
2022-10-21T00:24:14.233Z,97922.22
2022-10-21T00:29:05.864Z,97924.13
2022-10-21T00:33:57.533Z,97900.22
2022-10-21T00:38:49.456Z,97901.31
2022-10-21T00:44:01.687Z,97902.66
2022-10-21T00:48:57.781Z,97894.78
2022-10-21T00:53:50.523Z,97899.91
2022-10-21T00:58:42.260Z,97894.22
2022-10-21T01:03:35.210Z,97879.53
2022-10-21T01:08:28.638Z,97879.81
2022-10-21T01:13:38.913Z,97871.41
2022-10-21T01:18:31.015Z,97863.78
2022-10-21T01:23:31.908Z,97852.66
2022-10-21T01:28:38.511Z,97832.31
2022-10-21T01:33:54.616Z,97840.72
2022-10-21T01:39:11.165Z,97820.34
2022-10-21T01:44:12.700Z,97817.09
2022-10-21T01:49:27.198Z,97814.66
2022-10-21T01:54:30.898Z,97815.72
2022-10-21T01:59:27.853Z,97804.88
2022-10-21T02:04:20.631Z,97800.84
2022-10-21T02:09:12.787Z,97808.44
2022-10-21T02:14:29.247Z,97806.50
2022-10-21T02:19:21.839Z,97792.66
2022-10-21T02:24:13.658Z,97781.81
2022-10-21T02:29:05.430Z,97777.44
2022-10-21T02:34:07.894Z,97761.69
2022-10-21T02:39:07.448Z,97758.94
2022-10-21T02:44:01.906Z,97741.88
2022-10-21T02:48:54.233Z,97731.22
2022-10-21T02:53:45.835Z,97732.84
2022-10-21T02:58:37.525Z,97740.94
2022-10-21T03:03:29.982Z,97726.56
2022-10-21T03:08:21.701Z,97722.50
2022-10-21T03:13:13.365Z,97721.44
2022-10-21T03:18:05.081Z,97710.88
2022-10-21T03:22:56.714Z,97695.41
2022-10-21T03:27:50.589Z,97689.72
2022-10-21T03:32:42.324Z,97670.22
2022-10-21T03:37:33.942Z,97674.53
2022-10-21T03:42:25.645Z,97682.94
2022-10-21T03:47:17.299Z,97664.81
2022-10-21T03:52:08.935Z,97652.31
2022-10-21T03:57:00.704Z,97663.16
2022-10-21T04:01:52.698Z,97648.81
2022-10-21T04:06:44.457Z,97629.59
2022-10-21T04:11:36.136Z,97629.59
2022-10-21T04:16:27.971Z,97636.34
2022-10-21T04:21:19.889Z,97625.25
2022-10-21T04:26:12.185Z,97611.44
2022-10-21T04:31:03.959Z,97603.03
2022-10-21T04:35:56.079Z,97599.53
2022-10-21T04:40:47.709Z,97602.50
2022-10-21T04:45:40.104Z,97578.94
2022-10-21T04:50:32.608Z,97579.19
2022-10-21T04:55:24.321Z,97571.06
2022-10-21T05:00:15.963Z,97555.09
2022-10-21T05:05:08.124Z,97558.31
2022-10-21T05:09:59.762Z,97542.03
2022-10-21T05:14:51.477Z,97549.91
2022-10-21T05:19:43.081Z,97534.50
2022-10-21T05:24:34.787Z,97531.78
2022-10-21T05:29:26.454Z,97525.53
2022-10-21T05:34:18.195Z,97531.22
2022-10-21T05:39:11.534Z,97523.34
2022-10-21T05:44:03.527Z,97518.22
2022-10-21T05:48:55.139Z,97523.63
2022-10-21T05:53:46.901Z,97525.78
2022-10-21T05:58:38.563Z,97520.91
2022-10-21T06:03:33.070Z,97522.56
2022-10-21T06:08:25.088Z,97530.41
2022-10-21T06:13:16.646Z,97519.84
2022-10-21T06:18:08.284Z,97523.63
2022-10-21T06:23:00.835Z,97519.84
2022-10-21T06:27:53.308Z,97508.75
2022-10-21T06:32:45.121Z,97505.78
2022-10-21T06:37:37.022Z,97512.00
2022-10-21T06:42:28.837Z,97524.19
2022-10-21T06:47:20.406Z,97526.91
2022-10-21T06:52:12.300Z,97519.31
2022-10-21T06:57:04.478Z,97512.28
2022-10-21T07:02:00.221Z,97522.31
2022-10-21T07:06:52.836Z,97524.22
2022-10-21T07:11:44.769Z,97531.00
2022-10-21T07:16:37.091Z,97542.63
2022-10-21T07:21:30.771Z,97545.63
2022-10-21T07:26:23.824Z,97564.06
2022-10-21T07:31:19.802Z,97561.13
2022-10-21T07:36:15.907Z,97566.00
2022-10-21T07:41:08.135Z,97571.44
2022-10-21T07:46:03.179Z,97571.69
2022-10-21T07:51:04.575Z,97553.25
2022-10-21T07:56:08.606Z,97552.72
2022-10-21T08:01:01.997Z,97553.81
2022-10-21T08:05:54.719Z,97554.06
2022-10-21T08:10:46.373Z,97544.84
2022-10-21T08:15:42.648Z,97562.75
2022-10-21T08:20:34.347Z,97548.34
2022-10-21T08:25:29.987Z,97548.34
2022-10-21T08:30:21.929Z,97542.34
2022-10-21T08:35:13.509Z,97536.06
2022-10-21T08:40:05.797Z,97549.06
2022-10-21T08:45:07.046Z,97542.75
2022-10-21T08:50:04.350Z,97544.38
2022-10-21T08:55:03.801Z,97534.53
2022-10-21T08:59:55.821Z,97533.16
2022-10-21T09:05:17.110Z,97536.63
2022-10-21T09:10:22.647Z,97520.53
2022-10-21T09:15:40.347Z,97512.56
2022-10-21T09:21:03.357Z,97508.91
2022-10-21T09:26:01.180Z,97503.91
2022-10-21T09:30:54.276Z,97507.94
2022-10-21T09:35:59.256Z,97498.31
2022-10-21T09:40:53.044Z,97488.97
2022-10-21T09:45:46.318Z,97489.44
2022-10-21T09:50:38.006Z,97491.81
2022-10-21T09:55:31.759Z,97487.94
2022-10-21T10:00:42.951Z,97493.50
2022-10-21T10:05:35.901Z,97480.38
2022-10-21T10:10:33.635Z,97487.38
2022-10-21T10:15:39.063Z,97478.34
2022-10-21T10:20:30.687Z,97461.44
2022-10-21T10:25:24.371Z,97470.34
2022-10-21T10:30:17.141Z,97473.53
2022-10-21T10:35:21.726Z,97458.47
2022-10-21T10:40:26.125Z,97454.56
2022-10-21T10:45:22.789Z,97461.34
2022-10-21T10:50:51.707Z,97472.63
2022-10-21T10:55:44.292Z,97476.31
2022-10-21T11:00:43.145Z,97449.50
2022-10-21T11:05:38.596Z,97471.44
2022-10-21T11:10:35.496Z,97469.16
2022-10-21T11:15:50.116Z,97462.22
2022-10-21T11:21:12.065Z,97464.47
2022-10-21T11:26:12.353Z,97464.03
2022-10-21T11:31:20.752Z,97459.59
2022-10-21T11:36:17.754Z,97460.59
2022-10-21T11:41:28.395Z,97459.34
2022-10-21T11:46:38.520Z,97450.78
2022-10-21T11:52:03.572Z,97433.31
2022-10-21T11:57:14.698Z,97439.66
2022-10-21T12:02:25.602Z,97436.69
2022-10-21T12:07:40.834Z,97435.28
2022-10-21T12:12:38.003Z,97434.63
2022-10-21T12:17:34.635Z,97436.75
2022-10-21T12:22:29.354Z,97434.00
2022-10-21T12:27:38.678Z,97425.84
2022-10-21T12:33:06.768Z,97418.66
2022-10-21T12:37:59.841Z,97408.56
2022-10-21T12:43:28.847Z,97413.09
2022-10-21T12:48:39.991Z,97414.22
2022-10-21T12:53:40.223Z,97412.31
2022-10-21T12:58:39.949Z,97415.53
2022-10-21T13:03:55.115Z,97408.78
2022-10-21T13:08:49.887Z,97391.19
2022-10-21T13:13:46.291Z,97391.38
2022-10-21T13:18:56.666Z,97383.31
2022-10-21T13:23:52.084Z,97373.28
2022-10-21T13:29:07.570Z,97375.06
2022-10-21T13:34:01.013Z,97369.03
2022-10-21T13:38:55.705Z,97354.06
2022-10-21T13:44:00.081Z,97363.00
2022-10-21T13:48:51.937Z,97367.06
2022-10-21T13:53:46.252Z,97341.25
2022-10-21T13:58:40.368Z,97355.03
2022-10-21T14:03:32.229Z,97355.91
2022-10-21T14:08:28.765Z,97354.00
2022-10-21T14:13:25.413Z,97348.88
2022-10-21T14:18:33.524Z,97353.88
2022-10-21T14:23:29.727Z,97360.94
2022-10-21T14:28:22.498Z,97349.66
2022-10-21T14:33:28.581Z,97356.50
2022-10-21T14:38:29.674Z,97356.63
2022-10-21T14:43:31.147Z,97351.47
2022-10-21T14:48:33.493Z,97358.84
2022-10-21T14:53:26.211Z,97347.72
2022-10-21T14:58:23.739Z,97353.47
2022-10-21T15:03:15.559Z,97336.00
2022-10-21T15:08:19.240Z,97336.63
2022-10-21T15:13:19.440Z,97339.44
2022-10-21T15:18:43.915Z,97332.38
2022-10-21T15:23:37.729Z,97345.19
2022-10-21T15:28:33.261Z,97334.84
2022-10-21T15:33:25.471Z,97338.47
2022-10-21T15:38:17.157Z,97334.75
2022-10-21T15:43:10.724Z,97332.66
2022-10-21T15:48:02.338Z,97327.56
2022-10-21T15:57:50.889Z,97323.13
2022-10-21T16:02:42.489Z,97330.56
2022-10-21T16:07:34.347Z,97324.44
2022-10-21T16:12:26.035Z,97317.75
2022-10-21T16:17:18.028Z,97321.06
2022-10-21T16:22:22.582Z,97327.13
2022-10-21T16:27:26.435Z,97314.41
2022-10-21T16:32:23.240Z,97323.47
2022-10-21T16:37:27.439Z,97321.34
2022-10-21T16:42:20.415Z,97321.72
2022-10-21T16:47:18.188Z,97323.44
2022-10-21T16:52:13.154Z,97321.59
2022-10-21T16:57:06.966Z,97305.31
2022-10-21T17:02:00.030Z,97313.28
2022-10-21T17:06:51.882Z,97311.47
2022-10-21T17:11:43.822Z,97307.69
2022-10-21T17:16:35.504Z,97303.16
2022-10-21T17:21:32.249Z,97298.81
2022-10-21T17:26:24.247Z,97297.50
2022-10-21T17:31:21.560Z,97306.75
2022-10-21T17:36:13.897Z,97305.97
2022-10-21T17:41:05.716Z,97298.69
2022-10-21T17:45:57.584Z,97309.28
2022-10-21T17:50:57.298Z,97313.91
2022-10-21T17:56:00.552Z,97312.28
2022-10-21T18:00:52.521Z,97310.66
2022-10-21T18:05:46.461Z,97311.50
2022-10-21T18:10:38.102Z,97298.38
2022-10-21T18:15:31.479Z,97307.34
2022-10-21T18:20:24.212Z,97295.94
2022-10-21T18:25:15.935Z,97304.41
2022-10-21T18:30:08.390Z,97317.44
2022-10-21T18:35:00.102Z,97297.59
2022-10-21T18:39:55.342Z,97311.69
2022-10-21T18:44:51.393Z,97304.88
2022-10-21T18:49:43.024Z,97318.19
2022-10-21T18:54:35.028Z,97302.34
2022-10-21T18:59:26.654Z,97308.28
2022-10-21T19:04:18.361Z,97295.50
2022-10-21T19:09:22.018Z,97304.47
2022-10-21T19:14:15.241Z,97304.78
2022-10-21T19:19:07.522Z,97297.41
2022-10-21T19:24:01.517Z,97291.94
2022-10-21T19:29:00.169Z,97290.84
2022-10-21T19:33:51.988Z,97290.56
2022-10-21T19:38:44.630Z,97286.75
2022-10-21T19:43:37.152Z,97281.59
2022-10-21T19:48:29.102Z,97303.09
2022-10-21T19:53:20.769Z,97292.47
2022-10-21T19:58:12.385Z,97292.97
2022-10-21T20:03:04.423Z,97301.16
2022-10-21T20:07:56.124Z,97310.97
2022-10-21T20:12:47.797Z,97314.19
2022-10-21T20:17:39.494Z,97317.72
2022-10-21T20:22:31.088Z,97327.81
2022-10-21T20:27:22.748Z,97325.06
2022-10-21T20:32:14.335Z,97332.94
2022-10-21T20:37:06.321Z,97337.00
2022-10-21T20:41:57.936Z,97329.94
2022-10-21T20:46:49.643Z,97340.03
2022-10-21T20:51:42.531Z,97352.53
2022-10-21T20:56:37.266Z,97351.72
2022-10-21T21:01:32.414Z,97350.63
2022-10-21T21:06:25.632Z,97361.81
2022-10-21T21:11:17.701Z,97380.59
2022-10-21T21:16:14.992Z,97375.16
2022-10-21T21:21:13.077Z,97386.53
2022-10-21T21:26:11.080Z,97391.19
2022-10-21T21:31:04.137Z,97398.53
2022-10-21T21:35:59.171Z,97407.84
2022-10-21T21:40:50.844Z,97419.25
2022-10-21T21:45:48.693Z,97427.72
2022-10-21T21:50:41.096Z,97427.13
2022-10-21T21:55:32.983Z,97443.75
2022-10-21T22:00:25.029Z,97447.56
2022-10-21T22:05:16.789Z,97458.47
2022-10-21T22:10:08.982Z,97459.31
2022-10-21T22:15:00.726Z,97450.88
2022-10-21T22:19:53.998Z,97462.66
2022-10-21T22:24:46.240Z,97465.47
2022-10-21T22:29:37.929Z,97483.78
2022-10-21T22:34:29.648Z,97487.09
2022-10-21T22:39:21.450Z,97488.25
2022-10-21T22:44:13.261Z,97490.53
2022-10-21T22:49:05.375Z,97512.03
2022-10-21T22:53:57.363Z,97520.28
2022-10-21T22:58:48.975Z,97519.78
2022-10-21T23:03:40.767Z,97515.50
2022-10-21T23:08:32.610Z,97531.91
2022-10-21T23:13:24.836Z,97530.03
2022-10-21T23:18:17.615Z,97536.06
2022-10-21T23:23:10.343Z,97551.31
2022-10-21T23:28:02.037Z,97560.56
2022-10-21T23:32:54.132Z,97563.28
2022-10-21T23:37:45.964Z,97571.94
2022-10-21T23:42:41.969Z,97579.31
2022-10-21T23:47:35.719Z,97586.69
2022-10-21T23:52:27.315Z,97595.66
2022-10-21T23:57:19.082Z,97596.72
